sensor_id;sensor_type;location;lat;lon;timestamp;temperature;humidity
17726;DHT22;8983;53.156;17.960;2023-05-23T00:01:40;17.90;83.60
17726;DHT22;8983;53.156;17.960;2023-05-23T00:04:09;17.90;83.70
17726;DHT22;8983;53.156;17.960;2023-05-23T00:06:44;17.80;83.70
17726;DHT22;8983;53.156;17.960;2023-05-23T00:09:13;17.80;83.90
17726;DHT22;8983;53.156;17.960;2023-05-23T00:11:41;17.80;84.10
17726;DHT22;8983;53.156;17.960;2023-05-23T00:14:11;17.70;84.30
17726;DHT22;8983;53.156;17.960;2023-05-23T00:16:40;17.70;84.60
17726;DHT22;8983;53.156;17.960;2023-05-23T00:19:11;17.60;84.90
17726;DHT22;8983;53.156;17.960;2023-05-23T00:21:42;17.50;85.00
17726;DHT22;8983;53.156;17.960;2023-05-23T00:24:13;17.50;85.10
17726;DHT22;8983;53.156;17.960;2023-05-23T00:26:45;17.50;85.10
17726;DHT22;8983;53.156;17.960;2023-05-23T00:29:13;17.50;85.20
17726;DHT22;8983;53.156;17.960;2023-05-23T00:31:43;17.50;85.40
17726;DHT22;8983;53.156;17.960;2023-05-23T00:34:12;17.50;85.60
17726;DHT22;8983;53.156;17.960;2023-05-23T00:36:41;17.40;85.70
17726;DHT22;8983;53.156;17.960;2023-05-23T00:39:09;17.50;85.70
17726;DHT22;8983;53.156;17.960;2023-05-23T00:41:47;17.40;85.60
17726;DHT22;8983;53.156;17.960;2023-05-23T00:44:18;17.40;85.90
17726;DHT22;8983;53.156;17.960;2023-05-23T00:46:50;17.30;85.90
17726;DHT22;8983;53.156;17.960;2023-05-23T00:49:19;17.30;86.10
17726;DHT22;8983;53.156;17.960;2023-05-23T00:51:49;17.30;86.40
17726;DHT22;8983;53.156;17.960;2023-05-23T00:54:21;17.20;86.50
17726;DHT22;8983;53.156;17.960;2023-05-23T00:56:52;17.20;86.60
17726;DHT22;8983;53.156;17.960;2023-05-23T00:59:21;17.00;86.40
17726;DHT22;8983;53.156;17.960;2023-05-23T01:01:52;17.10;86.40
17726;DHT22;8983;53.156;17.960;2023-05-23T01:04:21;17.10;86.40
17726;DHT22;8983;53.156;17.960;2023-05-23T01:06:53;17.00;86.40
17726;DHT22;8983;53.156;17.960;2023-05-23T01:09:22;17.00;86.60
17726;DHT22;8983;53.156;17.960;2023-05-23T01:12:01;17.00;86.90
17726;DHT22;8983;53.156;17.960;2023-05-23T01:14:34;17.00;87.40
17726;DHT22;8983;53.156;17.960;2023-05-23T01:17:09;16.90;87.60
17726;DHT22;8983;53.156;17.960;2023-05-23T01:19:48;16.90;87.70
17726;DHT22;8983;53.156;17.960;2023-05-23T01:22:26;16.90;87.80
17726;DHT22;8983;53.156;17.960;2023-05-23T01:25:07;16.80;87.70
17726;DHT22;8983;53.156;17.960;2023-05-23T01:27:44;16.80;87.70
17726;DHT22;8983;53.156;17.960;2023-05-23T01:30:18;16.80;87.60
17726;DHT22;8983;53.156;17.960;2023-05-23T01:32:49;16.70;87.70
17726;DHT22;8983;53.156;17.960;2023-05-23T01:35:22;16.60;87.80
17726;DHT22;8983;53.156;17.960;2023-05-23T01:37:51;16.60;88.20
17726;DHT22;8983;53.156;17.960;2023-05-23T01:40:21;16.60;88.60
17726;DHT22;8983;53.156;17.960;2023-05-23T01:42:52;16.50;88.80
17726;DHT22;8983;53.156;17.960;2023-05-23T01:45:25;16.50;88.90
17726;DHT22;8983;53.156;17.960;2023-05-23T01:47:55;16.50;88.80
17726;DHT22;8983;53.156;17.960;2023-05-23T01:50:24;16.50;88.80
17726;DHT22;8983;53.156;17.960;2023-05-23T01:52:52;16.40;88.70
17726;DHT22;8983;53.156;17.960;2023-05-23T01:55:22;16.40;88.80
17726;DHT22;8983;53.156;17.960;2023-05-23T01:57:54;16.40;88.90
17726;DHT22;8983;53.156;17.960;2023-05-23T02:00:23;16.30;89.00
17726;DHT22;8983;53.156;17.960;2023-05-23T02:02:51;16.20;89.00
17726;DHT22;8983;53.156;17.960;2023-05-23T02:05:20;16.20;89.20
17726;DHT22;8983;53.156;17.960;2023-05-23T02:07:48;16.10;89.20
17726;DHT22;8983;53.156;17.960;2023-05-23T02:10:16;16.10;89.30
17726;DHT22;8983;53.156;17.960;2023-05-23T02:12:44;16.00;89.50
17726;DHT22;8983;53.156;17.960;2023-05-23T02:15:14;16.00;89.70
17726;DHT22;8983;53.156;17.960;2023-05-23T02:17:43;15.90;89.90
17726;DHT22;8983;53.156;17.960;2023-05-23T02:20:11;15.90;90.00
17726;DHT22;8983;53.156;17.960;2023-05-23T02:22:40;15.90;90.00
17726;DHT22;8983;53.156;17.960;2023-05-23T02:25:08;15.80;90.10
17726;DHT22;8983;53.156;17.960;2023-05-23T02:27:36;15.80;90.10
17726;DHT22;8983;53.156;17.960;2023-05-23T02:30:05;15.80;90.00
17726;DHT22;8983;53.156;17.960;2023-05-23T02:32:35;15.80;90.00
17726;DHT22;8983;53.156;17.960;2023-05-23T02:35:05;15.70;90.00
17726;DHT22;8983;53.156;17.960;2023-05-23T02:37:33;15.70;90.00
17726;DHT22;8983;53.156;17.960;2023-05-23T02:40:01;15.60;90.00
17726;DHT22;8983;53.156;17.960;2023-05-23T02:42:30;15.60;90.00
17726;DHT22;8983;53.156;17.960;2023-05-23T02:44:58;15.60;90.00
17726;DHT22;8983;53.156;17.960;2023-05-23T02:47:27;15.50;90.10
17726;DHT22;8983;53.156;17.960;2023-05-23T02:49:56;15.50;90.10
17726;DHT22;8983;53.156;17.960;2023-05-23T02:52:24;15.50;90.20
17726;DHT22;8983;53.156;17.960;2023-05-23T02:54:52;15.50;90.20
17726;DHT22;8983;53.156;17.960;2023-05-23T02:57:20;15.50;90.20
17726;DHT22;8983;53.156;17.960;2023-05-23T02:59:48;15.50;90.30
17726;DHT22;8983;53.156;17.960;2023-05-23T03:02:16;15.50;90.30
17726;DHT22;8983;53.156;17.960;2023-05-23T03:04:45;15.50;90.30
17726;DHT22;8983;53.156;17.960;2023-05-23T03:07:14;15.50;90.40
17726;DHT22;8983;53.156;17.960;2023-05-23T03:09:54;15.50;90.50
17726;DHT22;8983;53.156;17.960;2023-05-23T03:12:22;15.40;90.50
17726;DHT22;8983;53.156;17.960;2023-05-23T03:14:50;15.40;90.60
17726;DHT22;8983;53.156;17.960;2023-05-23T03:17:18;15.40;90.70
17726;DHT22;8983;53.156;17.960;2023-05-23T03:19:47;15.40;90.90
17726;DHT22;8983;53.156;17.960;2023-05-23T03:22:17;15.40;90.90
17726;DHT22;8983;53.156;17.960;2023-05-23T03:24:45;15.40;90.90
17726;DHT22;8983;53.156;17.960;2023-05-23T03:27:14;15.40;91.00
17726;DHT22;8983;53.156;17.960;2023-05-23T03:29:42;15.40;91.10
17726;DHT22;8983;53.156;17.960;2023-05-23T03:32:10;15.40;91.20
17726;DHT22;8983;53.156;17.960;2023-05-23T03:34:39;15.40;91.30
17726;DHT22;8983;53.156;17.960;2023-05-23T03:37:07;15.50;91.50
17726;DHT22;8983;53.156;17.960;2023-05-23T03:39:37;15.50;91.60
17726;DHT22;8983;53.156;17.960;2023-05-23T03:42:06;15.50;91.80
17726;DHT22;8983;53.156;17.960;2023-05-23T03:44:34;15.50;91.90
17726;DHT22;8983;53.156;17.960;2023-05-23T03:47:02;15.60;92.00
17726;DHT22;8983;53.156;17.960;2023-05-23T03:49:31;15.50;92.10
17726;DHT22;8983;53.156;17.960;2023-05-23T03:51:59;15.60;92.20
17726;DHT22;8983;53.156;17.960;2023-05-23T03:54:28;15.60;92.30
17726;DHT22;8983;53.156;17.960;2023-05-23T03:56:58;15.70;92.40
17726;DHT22;8983;53.156;17.960;2023-05-23T03:59:26;15.70;92.60
17726;DHT22;8983;53.156;17.960;2023-05-23T04:01:54;15.70;93.10
17726;DHT22;8983;53.156;17.960;2023-05-23T04:04:24;15.70;92.90
17726;DHT22;8983;53.156;17.960;2023-05-23T04:06:53;15.80;93.10
17726;DHT22;8983;53.156;17.960;2023-05-23T04:09:21;15.80;93.20
17726;DHT22;8983;53.156;17.960;2023-05-23T04:11:50;16.00;93.40
17726;DHT22;8983;53.156;17.960;2023-05-23T04:14:20;15.80;93.50
17726;DHT22;8983;53.156;17.960;2023-05-23T04:16:48;15.90;93.70
17726;DHT22;8983;53.156;17.960;2023-05-23T04:19:16;15.90;93.80
17726;DHT22;8983;53.156;17.960;2023-05-23T04:21:44;15.90;94.00
17726;DHT22;8983;53.156;17.960;2023-05-23T04:24:13;16.00;94.10
17726;DHT22;8983;53.156;17.960;2023-05-23T04:26:41;16.00;94.20
17726;DHT22;8983;53.156;17.960;2023-05-23T04:29:09;16.00;94.40
17726;DHT22;8983;53.156;17.960;2023-05-23T04:31:39;16.10;94.60
17726;DHT22;8983;53.156;17.960;2023-05-23T04:34:07;16.10;94.80
17726;DHT22;8983;53.156;17.960;2023-05-23T04:36:36;16.10;94.90
17726;DHT22;8983;53.156;17.960;2023-05-23T04:39:04;16.20;95.10
17726;DHT22;8983;53.156;17.960;2023-05-23T04:41:32;16.10;95.20
17726;DHT22;8983;53.156;17.960;2023-05-23T04:44:02;16.20;95.40
17726;DHT22;8983;53.156;17.960;2023-05-23T04:46:31;16.20;95.60
17726;DHT22;8983;53.156;17.960;2023-05-23T04:49:01;16.30;95.80
17726;DHT22;8983;53.156;17.960;2023-05-23T04:51:29;16.30;96.00
17726;DHT22;8983;53.156;17.960;2023-05-23T04:53:58;16.40;96.20
17726;DHT22;8983;53.156;17.960;2023-05-23T04:56:26;16.40;96.30
17726;DHT22;8983;53.156;17.960;2023-05-23T04:58:55;16.50;96.50
17726;DHT22;8983;53.156;17.960;2023-05-23T05:01:23;16.50;96.70
17726;DHT22;8983;53.156;17.960;2023-05-23T05:03:51;16.60;96.80
17726;DHT22;8983;53.156;17.960;2023-05-23T05:06:21;16.70;96.90
17726;DHT22;8983;53.156;17.960;2023-05-23T05:08:50;16.70;97.00
17726;DHT22;8983;53.156;17.960;2023-05-23T05:11:18;16.80;97.00
17726;DHT22;8983;53.156;17.960;2023-05-23T05:13:47;16.80;97.00
17726;DHT22;8983;53.156;17.960;2023-05-23T05:16:15;16.90;97.10
17726;DHT22;8983;53.156;17.960;2023-05-23T05:18:44;17.00;97.20
17726;DHT22;8983;53.156;17.960;2023-05-23T05:21:12;17.10;97.10
17726;DHT22;8983;53.156;17.960;2023-05-23T05:23:42;17.20;97.10
17726;DHT22;8983;53.156;17.960;2023-05-23T05:26:10;17.20;97.00
17726;DHT22;8983;53.156;17.960;2023-05-23T05:28:38;17.30;97.10
17726;DHT22;8983;53.156;17.960;2023-05-23T05:31:06;17.40;97.10
17726;DHT22;8983;53.156;17.960;2023-05-23T05:33:35;17.50;97.00
17726;DHT22;8983;53.156;17.960;2023-05-23T05:36:05;17.50;96.90
17726;DHT22;8983;53.156;17.960;2023-05-23T05:38:33;17.60;96.90
17726;DHT22;8983;53.156;17.960;2023-05-23T05:41:04;17.70;96.90
17726;DHT22;8983;53.156;17.960;2023-05-23T05:43:34;17.80;96.80
17726;DHT22;8983;53.156;17.960;2023-05-23T05:46:03;17.90;96.60
17726;DHT22;8983;53.156;17.960;2023-05-23T05:48:31;17.90;96.40
17726;DHT22;8983;53.156;17.960;2023-05-23T05:50:59;18.00;96.30
17726;DHT22;8983;53.156;17.960;2023-05-23T05:53:28;18.10;96.20
17726;DHT22;8983;53.156;17.960;2023-05-23T05:55:56;18.20;96.10
17726;DHT22;8983;53.156;17.960;2023-05-23T05:58:26;18.30;95.90
17726;DHT22;8983;53.156;17.960;2023-05-23T06:00:54;18.30;95.70
17726;DHT22;8983;53.156;17.960;2023-05-23T06:03:22;18.40;95.40
17726;DHT22;8983;53.156;17.960;2023-05-23T06:05:51;18.50;95.10
17726;DHT22;8983;53.156;17.960;2023-05-23T06:08:19;18.60;94.80
17726;DHT22;8983;53.156;17.960;2023-05-23T06:10:47;18.60;94.60
17726;DHT22;8983;53.156;17.960;2023-05-23T06:13:16;18.70;94.40
17726;DHT22;8983;53.156;17.960;2023-05-23T06:15:45;18.80;94.20
17726;DHT22;8983;53.156;17.960;2023-05-23T06:18:13;18.80;93.80
17726;DHT22;8983;53.156;17.960;2023-05-23T06:20:42;18.90;93.60
17726;DHT22;8983;53.156;17.960;2023-05-23T06:23:10;18.90;93.30
17726;DHT22;8983;53.156;17.960;2023-05-23T06:25:38;19.00;93.10
17726;DHT22;8983;53.156;17.960;2023-05-23T06:28:06;19.00;92.90
17726;DHT22;8983;53.156;17.960;2023-05-23T06:30:34;19.10;92.90
17726;DHT22;8983;53.156;17.960;2023-05-23T06:33:05;19.20;93.10
17726;DHT22;8983;53.156;17.960;2023-05-23T06:35:34;19.30;93.00
17726;DHT22;8983;53.156;17.960;2023-05-23T06:38:02;19.40;92.90
17726;DHT22;8983;53.156;17.960;2023-05-23T06:40:30;19.60;92.70
17726;DHT22;8983;53.156;17.960;2023-05-23T06:42:58;19.60;92.50
17726;DHT22;8983;53.156;17.960;2023-05-23T06:45:26;19.80;92.40
17726;DHT22;8983;53.156;17.960;2023-05-23T06:47:54;19.90;92.30
17726;DHT22;8983;53.156;17.960;2023-05-23T06:50:24;20.10;92.20
17726;DHT22;8983;53.156;17.960;2023-05-23T06:52:52;20.20;92.10
17726;DHT22;8983;53.156;17.960;2023-05-23T06:55:20;20.40;91.90
17726;DHT22;8983;53.156;17.960;2023-05-23T06:57:48;20.50;91.60
17726;DHT22;8983;53.156;17.960;2023-05-23T07:00:18;20.50;91.10
17726;DHT22;8983;53.156;17.960;2023-05-23T07:02:47;20.60;90.80
17726;DHT22;8983;53.156;17.960;2023-05-23T07:05:15;20.70;90.60
17726;DHT22;8983;53.156;17.960;2023-05-23T07:07:45;20.80;90.50
17726;DHT22;8983;53.156;17.960;2023-05-23T07:10:13;20.80;90.30
17726;DHT22;8983;53.156;17.960;2023-05-23T07:12:41;20.90;90.10
17726;DHT22;8983;53.156;17.960;2023-05-23T07:15:10;21.00;90.00
17726;DHT22;8983;53.156;17.960;2023-05-23T07:17:38;21.10;90.00
17726;DHT22;8983;53.156;17.960;2023-05-23T07:20:07;21.10;88.90
17726;DHT22;8983;53.156;17.960;2023-05-23T07:22:35;21.20;88.70
17726;DHT22;8983;53.156;17.960;2023-05-23T07:25:06;21.30;88.40
17726;DHT22;8983;53.156;17.960;2023-05-23T07:27:35;21.30;87.90
17726;DHT22;8983;53.156;17.960;2023-05-23T07:30:03;21.40;87.40
17726;DHT22;8983;53.156;17.960;2023-05-23T07:32:33;21.40;86.60
17726;DHT22;8983;53.156;17.960;2023-05-23T07:35:01;21.50;85.70
17726;DHT22;8983;53.156;17.960;2023-05-23T07:37:29;21.50;85.10
17726;DHT22;8983;53.156;17.960;2023-05-23T07:39:57;21.50;84.60
17726;DHT22;8983;53.156;17.960;2023-05-23T07:42:27;21.60;83.80
17726;DHT22;8983;53.156;17.960;2023-05-23T07:44:55;21.70;83.50
17726;DHT22;8983;53.156;17.960;2023-05-23T07:47:23;21.80;83.50
17726;DHT22;8983;53.156;17.960;2023-05-23T07:49:51;21.80;83.30
17726;DHT22;8983;53.156;17.960;2023-05-23T07:52:19;21.90;83.10
17726;DHT22;8983;53.156;17.960;2023-05-23T07:54:47;21.90;82.40
17726;DHT22;8983;53.156;17.960;2023-05-23T07:57:15;22.00;81.60
17726;DHT22;8983;53.156;17.960;2023-05-23T07:59:45;22.00;80.90
17726;DHT22;8983;53.156;17.960;2023-05-23T08:02:13;22.10;80.10
17726;DHT22;8983;53.156;17.960;2023-05-23T08:04:41;22.10;79.20
17726;DHT22;8983;53.156;17.960;2023-05-23T08:07:10;22.10;78.70
17726;DHT22;8983;53.156;17.960;2023-05-23T08:09:39;22.20;78.20
17726;DHT22;8983;53.156;17.960;2023-05-23T08:12:08;22.30;76.90
17726;DHT22;8983;53.156;17.960;2023-05-23T08:14:36;22.30;75.70
17726;DHT22;8983;53.156;17.960;2023-05-23T08:17:19;22.40;75.00
17726;DHT22;8983;53.156;17.960;2023-05-23T08:19:47;22.40;74.10
17726;DHT22;8983;53.156;17.960;2023-05-23T08:22:15;22.50;73.80
17726;DHT22;8983;53.156;17.960;2023-05-23T08:24:43;22.50;73.50
17726;DHT22;8983;53.156;17.960;2023-05-23T08:27:11;22.60;72.20
17726;DHT22;8983;53.156;17.960;2023-05-23T08:29:39;22.60;71.40
17726;DHT22;8983;53.156;17.960;2023-05-23T08:32:08;22.60;70.40
17726;DHT22;8983;53.156;17.960;2023-05-23T08:34:39;22.60;69.80
17726;DHT22;8983;53.156;17.960;2023-05-23T08:37:07;22.60;69.60
17726;DHT22;8983;53.156;17.960;2023-05-23T08:39:36;22.60;69.60
17726;DHT22;8983;53.156;17.960;2023-05-23T08:42:04;22.60;69.40
17726;DHT22;8983;53.156;17.960;2023-05-23T08:44:33;22.70;69.40
17726;DHT22;8983;53.156;17.960;2023-05-23T08:47:03;22.70;68.90
17726;DHT22;8983;53.156;17.960;2023-05-23T08:49:32;22.80;68.40
17726;DHT22;8983;53.156;17.960;2023-05-23T08:52:02;22.80;68.00
17726;DHT22;8983;53.156;17.960;2023-05-23T08:54:30;22.80;67.20
17726;DHT22;8983;53.156;17.960;2023-05-23T08:57:00;22.90;67.00
17726;DHT22;8983;53.156;17.960;2023-05-23T08:59:29;23.00;66.60
17726;DHT22;8983;53.156;17.960;2023-05-23T09:01:59;23.00;66.00
17726;DHT22;8983;53.156;17.960;2023-05-23T09:04:27;23.10;66.70
17726;DHT22;8983;53.156;17.960;2023-05-23T09:06:58;23.20;65.80
17726;DHT22;8983;53.156;17.960;2023-05-23T09:09:28;23.30;65.60
17726;DHT22;8983;53.156;17.960;2023-05-23T09:11:58;23.30;65.10
17726;DHT22;8983;53.156;17.960;2023-05-23T09:14:26;23.30;63.80
17726;DHT22;8983;53.156;17.960;2023-05-23T09:16:59;23.30;63.30
17726;DHT22;8983;53.156;17.960;2023-05-23T09:19:30;23.40;62.60
17726;DHT22;8983;53.156;17.960;2023-05-23T09:22:01;23.30;61.60
17726;DHT22;8983;53.156;17.960;2023-05-23T09:24:37;23.30;61.50
17726;DHT22;8983;53.156;17.960;2023-05-23T09:27:06;23.20;60.60
17726;DHT22;8983;53.156;17.960;2023-05-23T09:29:36;23.10;60.80
17726;DHT22;8983;53.156;17.960;2023-05-23T09:32:10;23.10;61.00
17726;DHT22;8983;53.156;17.960;2023-05-23T09:34:42;23.00;61.10
17726;DHT22;8983;53.156;17.960;2023-05-23T09:37:23;22.90;60.80
17726;DHT22;8983;53.156;17.960;2023-05-23T09:39:53;22.90;61.00
17726;DHT22;8983;53.156;17.960;2023-05-23T09:42:21;22.80;60.50
17726;DHT22;8983;53.156;17.960;2023-05-23T09:44:50;22.90;60.90
17726;DHT22;8983;53.156;17.960;2023-05-23T09:47:18;22.90;60.70
17726;DHT22;8983;53.156;17.960;2023-05-23T09:49:46;23.00;59.90
17726;DHT22;8983;53.156;17.960;2023-05-23T09:52:14;23.10;59.80
17726;DHT22;8983;53.156;17.960;2023-05-23T09:54:43;23.20;59.60
17726;DHT22;8983;53.156;17.960;2023-05-23T09:57:14;23.30;59.50
17726;DHT22;8983;53.156;17.960;2023-05-23T09:59:48;23.30;59.60
17726;DHT22;8983;53.156;17.960;2023-05-23T10:02:38;23.40;59.60
17726;DHT22;8983;53.156;17.960;2023-05-23T10:05:15;23.40;59.40
17726;DHT22;8983;53.156;17.960;2023-05-23T10:07:49;23.40;59.10
17726;DHT22;8983;53.156;17.960;2023-05-23T10:10:18;23.50;58.80
17726;DHT22;8983;53.156;17.960;2023-05-23T10:12:50;23.60;58.70
17726;DHT22;8983;53.156;17.960;2023-05-23T10:15:21;23.60;58.60
17726;DHT22;8983;53.156;17.960;2023-05-23T10:18:02;23.50;58.80
17726;DHT22;8983;53.156;17.960;2023-05-23T10:20:32;23.60;59.10
17726;DHT22;8983;53.156;17.960;2023-05-23T10:23:02;23.60;58.90
17726;DHT22;8983;53.156;17.960;2023-05-23T10:25:31;23.70;58.80
17726;DHT22;8983;53.156;17.960;2023-05-23T10:28:01;23.90;58.60
17726;DHT22;8983;53.156;17.960;2023-05-23T10:30:31;24.00;58.50
17726;DHT22;8983;53.156;17.960;2023-05-23T10:32:59;24.10;58.60
17726;DHT22;8983;53.156;17.960;2023-05-23T10:35:41;24.10;58.30
17726;DHT22;8983;53.156;17.960;2023-05-23T10:38:27;24.00;58.50
17726;DHT22;8983;53.156;17.960;2023-05-23T10:41:05;24.00;58.10
17726;DHT22;8983;53.156;17.960;2023-05-23T10:43:43;24.10;58.20
17726;DHT22;8983;53.156;17.960;2023-05-23T10:46:12;24.20;57.60
17726;DHT22;8983;53.156;17.960;2023-05-23T10:48:41;24.20;57.00
17726;DHT22;8983;53.156;17.960;2023-05-23T10:51:12;24.20;57.30
17726;DHT22;8983;53.156;17.960;2023-05-23T10:53:42;24.20;57.50
17726;DHT22;8983;53.156;17.960;2023-05-23T10:56:17;24.20;57.90
17726;DHT22;8983;53.156;17.960;2023-05-23T10:58:51;24.30;58.30
17726;DHT22;8983;53.156;17.960;2023-05-23T11:01:20;24.40;58.40
17726;DHT22;8983;53.156;17.960;2023-05-23T11:03:51;24.40;58.40
17726;DHT22;8983;53.156;17.960;2023-05-23T11:06:29;24.50;58.30
17726;DHT22;8983;53.156;17.960;2023-05-23T11:09:03;24.40;57.80
17726;DHT22;8983;53.156;17.960;2023-05-23T11:11:58;24.30;57.80
17726;DHT22;8983;53.156;17.960;2023-05-23T11:17:30;24.30;57.80
17726;DHT22;8983;53.156;17.960;2023-05-23T11:20:01;24.20;57.40
17726;DHT22;8983;53.156;17.960;2023-05-23T11:22:31;24.10;57.20
17726;DHT22;8983;53.156;17.960;2023-05-23T11:25:06;24.00;56.80
17726;DHT22;8983;53.156;17.960;2023-05-23T11:27:35;24.00;56.80
17726;DHT22;8983;53.156;17.960;2023-05-23T11:30:07;23.80;56.60
17726;DHT22;8983;53.156;17.960;2023-05-23T11:32:36;23.70;56.60
17726;DHT22;8983;53.156;17.960;2023-05-23T11:35:05;23.70;56.80
17726;DHT22;8983;53.156;17.960;2023-05-23T11:37:34;23.70;56.90
17726;DHT22;8983;53.156;17.960;2023-05-23T11:40:24;23.60;56.90
17726;DHT22;8983;53.156;17.960;2023-05-23T11:42:53;23.50;56.70
17726;DHT22;8983;53.156;17.960;2023-05-23T11:45:23;23.50;57.00
17726;DHT22;8983;53.156;17.960;2023-05-23T11:47:51;23.40;57.00
17726;DHT22;8983;53.156;17.960;2023-05-23T11:50:20;23.40;57.10
17726;DHT22;8983;53.156;17.960;2023-05-23T11:52:50;23.40;57.20
17726;DHT22;8983;53.156;17.960;2023-05-23T11:55:18;23.40;57.20
17726;DHT22;8983;53.156;17.960;2023-05-23T11:57:47;23.40;57.30
17726;DHT22;8983;53.156;17.960;2023-05-23T12:00:16;23.40;57.40
17726;DHT22;8983;53.156;17.960;2023-05-23T12:02:46;23.40;57.40
17726;DHT22;8983;53.156;17.960;2023-05-23T12:05:15;23.40;57.30
17726;DHT22;8983;53.156;17.960;2023-05-23T12:07:44;23.40;57.40
17726;DHT22;8983;53.156;17.960;2023-05-23T12:10:14;23.40;57.30
17726;DHT22;8983;53.156;17.960;2023-05-23T12:12:43;23.50;57.10
17726;DHT22;8983;53.156;17.960;2023-05-23T12:15:12;23.40;56.70
17726;DHT22;8983;53.156;17.960;2023-05-23T12:17:43;23.40;56.50
17726;DHT22;8983;53.156;17.960;2023-05-23T12:20:13;23.30;56.40
17726;DHT22;8983;53.156;17.960;2023-05-23T12:22:41;23.40;56.30
17726;DHT22;8983;53.156;17.960;2023-05-23T12:25:10;23.40;56.30
17726;DHT22;8983;53.156;17.960;2023-05-23T12:27:39;23.50;56.30
17726;DHT22;8983;53.156;17.960;2023-05-23T12:30:12;23.50;56.20
17726;DHT22;8983;53.156;17.960;2023-05-23T12:32:43;23.50;56.30
17726;DHT22;8983;53.156;17.960;2023-05-23T12:35:14;23.60;56.40
17726;DHT22;8983;53.156;17.960;2023-05-23T12:37:44;23.70;56.50
17726;DHT22;8983;53.156;17.960;2023-05-23T12:40:13;23.80;56.50
17726;DHT22;8983;53.156;17.960;2023-05-23T12:42:52;23.80;56.70
17726;DHT22;8983;53.156;17.960;2023-05-23T12:45:22;24.00;56.90
17726;DHT22;8983;53.156;17.960;2023-05-23T12:47:50;24.10;57.10
17726;DHT22;8983;53.156;17.960;2023-05-23T12:50:21;24.20;57.00
17726;DHT22;8983;53.156;17.960;2023-05-23T12:52:50;24.20;56.70
17726;DHT22;8983;53.156;17.960;2023-05-23T12:55:18;24.20;56.70
17726;DHT22;8983;53.156;17.960;2023-05-23T12:57:46;24.20;56.90
17726;DHT22;8983;53.156;17.960;2023-05-23T13:00:15;24.20;56.90
17726;DHT22;8983;53.156;17.960;2023-05-23T13:02:43;24.20;56.70
17726;DHT22;8983;53.156;17.960;2023-05-23T13:05:11;24.20;56.30
17726;DHT22;8983;53.156;17.960;2023-05-23T13:07:41;24.10;56.50
17726;DHT22;8983;53.156;17.960;2023-05-23T13:10:10;24.10;56.60
17726;DHT22;8983;53.156;17.960;2023-05-23T13:12:38;24.10;56.60
17726;DHT22;8983;53.156;17.960;2023-05-23T13:15:07;24.10;56.70
17726;DHT22;8983;53.156;17.960;2023-05-23T13:17:36;24.10;56.70
17726;DHT22;8983;53.156;17.960;2023-05-23T13:20:05;24.10;56.80
17726;DHT22;8983;53.156;17.960;2023-05-23T13:22:35;24.10;56.80
17726;DHT22;8983;53.156;17.960;2023-05-23T13:25:06;24.10;56.70
17726;DHT22;8983;53.156;17.960;2023-05-23T13:27:35;24.10;56.50
17726;DHT22;8983;53.156;17.960;2023-05-23T13:30:03;24.10;56.50
17726;DHT22;8983;53.156;17.960;2023-05-23T13:32:32;24.10;56.30
17726;DHT22;8983;53.156;17.960;2023-05-23T13:35:00;24.10;56.00
17726;DHT22;8983;53.156;17.960;2023-05-23T13:37:29;24.10;55.50
17726;DHT22;8983;53.156;17.960;2023-05-23T13:39:57;24.10;55.40
17726;DHT22;8983;53.156;17.960;2023-05-23T13:42:26;24.10;55.50
17726;DHT22;8983;53.156;17.960;2023-05-23T13:44:54;24.20;55.70
17726;DHT22;8983;53.156;17.960;2023-05-23T13:47:22;24.20;55.50
17726;DHT22;8983;53.156;17.960;2023-05-23T13:49:50;24.20;55.40
17726;DHT22;8983;53.156;17.960;2023-05-23T13:52:18;24.20;55.70
17726;DHT22;8983;53.156;17.960;2023-05-23T13:54:47;24.30;56.10
17726;DHT22;8983;53.156;17.960;2023-05-23T13:57:15;24.30;56.20
17726;DHT22;8983;53.156;17.960;2023-05-23T13:59:44;24.40;56.20
17726;DHT22;8983;53.156;17.960;2023-05-23T14:02:12;24.30;55.90
17726;DHT22;8983;53.156;17.960;2023-05-23T14:04:40;24.30;55.90
17726;DHT22;8983;53.156;17.960;2023-05-23T14:07:08;24.20;56.10
17726;DHT22;8983;53.156;17.960;2023-05-23T14:09:36;24.20;56.50
17726;DHT22;8983;53.156;17.960;2023-05-23T14:12:05;24.20;56.70
17726;DHT22;8983;53.156;17.960;2023-05-23T14:14:33;24.10;56.90
17726;DHT22;8983;53.156;17.960;2023-05-23T14:17:03;24.10;57.10
17726;DHT22;8983;53.156;17.960;2023-05-23T14:19:31;24.10;57.00
17726;DHT22;8983;53.156;17.960;2023-05-23T14:21:59;24.10;57.10
17726;DHT22;8983;53.156;17.960;2023-05-23T14:24:27;24.10;57.20
17726;DHT22;8983;53.156;17.960;2023-05-23T14:26:55;24.10;57.30
17726;DHT22;8983;53.156;17.960;2023-05-23T14:29:23;24.10;57.30
17726;DHT22;8983;53.156;17.960;2023-05-23T14:31:52;24.10;57.30
17726;DHT22;8983;53.156;17.960;2023-05-23T14:34:21;24.20;57.40
17726;DHT22;8983;53.156;17.960;2023-05-23T14:36:49;24.20;57.60
17726;DHT22;8983;53.156;17.960;2023-05-23T14:39:18;24.10;57.70
17726;DHT22;8983;53.156;17.960;2023-05-23T14:41:46;24.10;57.60
17726;DHT22;8983;53.156;17.960;2023-05-23T14:44:14;24.10;57.40
17726;DHT22;8983;53.156;17.960;2023-05-23T14:46:42;24.10;57.50
17726;DHT22;8983;53.156;17.960;2023-05-23T14:49:14;24.20;57.70
17726;DHT22;8983;53.156;17.960;2023-05-23T14:51:44;24.20;57.60
17726;DHT22;8983;53.156;17.960;2023-05-23T14:54:17;24.30;57.60
17726;DHT22;8983;53.156;17.960;2023-05-23T14:56:45;24.30;58.30
17726;DHT22;8983;53.156;17.960;2023-05-23T14:59:16;24.40;57.80
17726;DHT22;8983;53.156;17.960;2023-05-23T15:01:44;24.40;57.90
17726;DHT22;8983;53.156;17.960;2023-05-23T15:04:13;24.50;57.80
17726;DHT22;8983;53.156;17.960;2023-05-23T15:06:41;24.50;57.50
17726;DHT22;8983;53.156;17.960;2023-05-23T15:09:11;24.50;57.30
17726;DHT22;8983;53.156;17.960;2023-05-23T15:11:39;24.50;57.30
17726;DHT22;8983;53.156;17.960;2023-05-23T15:14:08;24.50;57.30
17726;DHT22;8983;53.156;17.960;2023-05-23T15:16:36;24.60;57.60
17726;DHT22;8983;53.156;17.960;2023-05-23T15:19:05;24.50;57.60
17726;DHT22;8983;53.156;17.960;2023-05-23T15:21:33;24.50;57.50
17726;DHT22;8983;53.156;17.960;2023-05-23T15:24:02;24.50;57.50
17726;DHT22;8983;53.156;17.960;2023-05-23T15:26:31;24.50;57.50
17726;DHT22;8983;53.156;17.960;2023-05-23T15:28:59;24.50;57.50
17726;DHT22;8983;53.156;17.960;2023-05-23T15:31:27;24.50;57.40
17726;DHT22;8983;53.156;17.960;2023-05-23T15:33:55;24.50;57.40
17726;DHT22;8983;53.156;17.960;2023-05-23T15:36:24;24.50;57.60
17726;DHT22;8983;53.156;17.960;2023-05-23T15:38:52;24.50;57.90
17726;DHT22;8983;53.156;17.960;2023-05-23T15:41:20;24.50;58.00
17726;DHT22;8983;53.156;17.960;2023-05-23T15:43:49;24.50;58.10
17726;DHT22;8983;53.156;17.960;2023-05-23T15:46:17;24.50;58.20
17726;DHT22;8983;53.156;17.960;2023-05-23T15:48:45;24.40;58.20